Vanguard, Canada
Current Conditions -  °F | °C
As of 8:05 AM on Thursday 30 Oct 2014 (Local Time) from CYYN Reporting Station
Haze Haze  
Wind Chill: -6°   Ceiling: 300
Heat Index: -1°   Visibility: 6mi
Dew Point: -1°   Wind: 10mph
Humidity: 100%   Direction: 90°E
Pressure: 30.32"   Gusts: NA
Location:  49.9°N, 107.3°W
Report Text: CYYN 301405Z AUTO 09009KT 6SM BR OVC003 M01/M01 A3032 RMK SLP302
Loading
Personal Weather Stations






























Interactive Weather Map
Tropical Storm Tracking
New forecast layout! Learn more

10-Day Weather Forecast

Advertisements
Track Severe Weather on mobile